createdAt,value
2023-09-25T00:00:36.260Z,102276.78
2023-09-25T00:03:06.275Z,102277.31
2023-09-25T00:05:34.753Z,102275.38
2023-09-25T00:08:03.214Z,102268.94
2023-09-25T00:10:32.403Z,102275.22
2023-09-25T00:13:00.879Z,102283.50
2023-09-25T00:15:29.107Z,102278.47
2023-09-25T00:17:59.583Z,102273.50
2023-09-25T00:20:27.873Z,102279.91
2023-09-25T00:22:56.986Z,102282.88
2023-09-25T00:25:25.153Z,102278.84
2023-09-25T00:27:53.364Z,102277.31
2023-09-25T00:30:21.593Z,102276.06
2023-09-25T00:32:51.703Z,102268.59
2023-09-25T00:35:21.528Z,102276.97
2023-09-25T00:37:50.085Z,102273.44
2023-09-25T00:40:19.474Z,102273.47
2023-09-25T00:42:50.849Z,102265.66
2023-09-25T00:45:19.350Z,102270.94
2023-09-25T00:47:47.696Z,102269.63
2023-09-25T00:50:15.667Z,102267.84
2023-09-25T00:52:46.476Z,102275.97
2023-09-25T00:55:16.109Z,102280.63
2023-09-25T00:57:45.075Z,102274.19
2023-09-25T01:00:14.804Z,102270.47
2023-09-25T01:02:43.419Z,102262.97
2023-09-25T01:05:12.879Z,102272.72
2023-09-25T01:07:41.346Z,102262.06
2023-09-25T01:10:15.837Z,102261.19
2023-09-25T01:12:44.247Z,102250.34
2023-09-25T01:15:13.953Z,102250.38
2023-09-25T01:17:42.647Z,102246.63
2023-09-25T01:20:16.658Z,102242.84
2023-09-25T01:22:47.991Z,102250.09
2023-09-25T01:25:17.586Z,102247.47
2023-09-25T01:27:47.975Z,102246.41
2023-09-25T01:30:18.232Z,102238.88
2023-09-25T01:32:47.694Z,102242.09
2023-09-25T01:35:18.889Z,102248.59
2023-09-25T01:37:49.907Z,102241.03
2023-09-25T01:40:19.685Z,102244.22
2023-09-25T01:42:49.733Z,102245.84
2023-09-25T01:45:20.986Z,102244.50
2023-09-25T01:47:52.318Z,102243.97
2023-09-25T01:50:22.623Z,102238.22
2023-09-25T01:52:54.395Z,102243.53
2023-09-25T01:55:22.503Z,102246.59
2023-09-25T01:57:50.824Z,102239.69
2023-09-25T02:00:20.560Z,102236.78
2023-09-25T02:02:49.291Z,102241.53
2023-09-25T02:05:17.972Z,102240.56
2023-09-25T02:07:46.569Z,102234.56
2023-09-25T02:10:16.121Z,102241.59
2023-09-25T02:12:44.450Z,102248.84
2023-09-25T02:15:13.738Z,102241.50
2023-09-25T02:17:42.320Z,102248.50
2023-09-25T02:20:21.414Z,102247.28
2023-09-25T02:22:50.068Z,102249.41
2023-09-25T02:25:19.948Z,102258.31
2023-09-25T02:27:48.464Z,102250.88
2023-09-25T02:30:17.100Z,102249.31
2023-09-25T02:32:45.952Z,102245.88
2023-09-25T02:35:14.877Z,102236.88
2023-09-25T02:37:45.345Z,102228.34
2023-09-25T02:40:14.544Z,102225.31
2023-09-25T02:42:47.436Z,102234.56
2023-09-25T02:45:16.408Z,102229.72
2023-09-25T02:47:45.200Z,102229.75
2023-09-25T02:50:14.606Z,102227.78
2023-09-25T02:52:44.710Z,102231.50
2023-09-25T02:55:13.209Z,102224.25
2023-09-25T02:57:41.399Z,102232.31
2023-09-25T03:00:12.988Z,102241.97
2023-09-25T03:02:41.947Z,102243.22
2023-09-25T03:05:11.011Z,102244.25
2023-09-25T03:07:39.929Z,102247.19
2023-09-25T03:10:09.019Z,102249.94
2023-09-25T03:12:37.336Z,102250.28
2023-09-25T03:15:07.408Z,102251.72
2023-09-25T03:17:37.493Z,102246.28
2023-09-25T03:20:16.054Z,102246.69
2023-09-25T03:22:45.510Z,102244.16
2023-09-25T03:25:14.660Z,102241.31
2023-09-25T03:27:44.499Z,102244.25
2023-09-25T03:30:14.252Z,102243.44
2023-09-25T03:32:43.751Z,102238.75
2023-09-25T03:35:11.930Z,102242.56
2023-09-25T03:37:39.963Z,102248.34
2023-09-25T03:40:10.194Z,102249.25
2023-09-25T03:42:38.421Z,102240.59
2023-09-25T03:45:07.713Z,102247.34
2023-09-25T03:47:36.613Z,102247.03
2023-09-25T03:50:06.489Z,102255.34
2023-09-25T03:52:34.726Z,102248.66
2023-09-25T03:55:02.652Z,102247.72
2023-09-25T03:57:30.734Z,102241.72
2023-09-25T03:59:58.705Z,102240.88
2023-09-25T04:02:26.678Z,102248.47
2023-09-25T04:04:54.609Z,102242.75
2023-09-25T04:07:24.194Z,102250.19
2023-09-25T04:09:52.176Z,102245.13
2023-09-25T04:12:20.236Z,102234.00
2023-09-25T04:14:48.565Z,102243.66
2023-09-25T04:17:17.102Z,102245.00
2023-09-25T04:19:45.808Z,102248.63
2023-09-25T04:22:14.156Z,102246.84
2023-09-25T04:24:43.533Z,102242.06
2023-09-25T04:27:12.335Z,102243.56
2023-09-25T04:29:42.378Z,102251.03
2023-09-25T04:32:10.474Z,102246.75
2023-09-25T04:34:38.662Z,102248.53
2023-09-25T04:37:09.176Z,102245.31
2023-09-25T04:39:37.376Z,102254.22
2023-09-25T04:42:06.828Z,102241.56
2023-09-25T04:44:36.007Z,102240.22
2023-09-25T04:47:05.449Z,102246.69
2023-09-25T04:49:33.477Z,102241.22
2023-09-25T04:52:01.454Z,102242.53
2023-09-25T04:54:29.678Z,102242.47
2023-09-25T04:56:57.801Z,102240.94
2023-09-25T04:59:27.230Z,102246.13
2023-09-25T05:01:57.449Z,102241.31
2023-09-25T05:04:25.500Z,102239.00
2023-09-25T05:06:53.634Z,102237.09
2023-09-25T05:09:23.646Z,102240.53
2023-09-25T05:11:51.786Z,102246.47
2023-09-25T05:14:20.600Z,102241.63
2023-09-25T05:16:50.075Z,102242.56
2023-09-25T05:19:18.413Z,102247.81
2023-09-25T05:21:46.618Z,102248.81
2023-09-25T05:24:14.628Z,102254.97
2023-09-25T05:26:42.639Z,102241.81
2023-09-25T05:29:10.676Z,102250.19
2023-09-25T05:31:38.656Z,102250.66
2023-09-25T05:34:08.118Z,102253.03
2023-09-25T05:36:36.066Z,102246.78
2023-09-25T05:39:04.309Z,102249.19
2023-09-25T05:41:32.243Z,102247.75
2023-09-25T05:44:00.469Z,102254.78
2023-09-25T05:46:28.539Z,102250.50
2023-09-25T05:48:59.331Z,102251.94
2023-09-25T05:51:28.844Z,102249.03
2023-09-25T05:53:56.920Z,102251.81
2023-09-25T05:56:24.992Z,102254.66
2023-09-25T05:58:54.777Z,102248.75
2023-09-25T06:01:23.062Z,102249.59
2023-09-25T06:03:51.586Z,102239.25
2023-09-25T06:06:21.217Z,102245.78
2023-09-25T06:08:51.027Z,102240.81
2023-09-25T06:11:19.403Z,102244.22
2023-09-25T06:13:47.463Z,102239.97
2023-09-25T06:16:15.425Z,102251.09
2023-09-25T06:18:43.666Z,102246.53
2023-09-25T06:21:14.347Z,102252.13
2023-09-25T06:23:43.952Z,102247.75
2023-09-25T06:26:15.394Z,102248.44
2023-09-25T06:28:44.713Z,102256.47
2023-09-25T06:31:13.575Z,102255.72
2023-09-25T06:33:41.781Z,102258.97
2023-09-25T06:36:10.172Z,102255.09
2023-09-25T06:38:38.264Z,102252.81
2023-09-25T06:41:06.252Z,102244.56
2023-09-25T06:43:35.668Z,102248.00
2023-09-25T06:46:03.890Z,102244.72
2023-09-25T06:48:33.291Z,102240.66
2023-09-25T06:51:02.200Z,102237.69
2023-09-25T06:53:30.389Z,102237.59
2023-09-25T06:55:59.824Z,102239.72
2023-09-25T06:58:28.538Z,102242.97
2023-09-25T07:00:58.830Z,102231.22
2023-09-25T07:03:27.576Z,102236.25
2023-09-25T07:05:57.095Z,102239.72
2023-09-25T07:08:27.124Z,102228.94
2023-09-25T07:10:56.393Z,102223.56
2023-09-25T07:13:24.715Z,102221.16
2023-09-25T07:15:53.695Z,102228.81
2023-09-25T07:18:23.884Z,102230.41
2023-09-25T07:20:55.598Z,102228.56
2023-09-25T07:23:24.664Z,102226.25
2023-09-25T07:26:01.858Z,102236.72
2023-09-25T07:28:30.754Z,102232.47
2023-09-25T07:31:00.878Z,102241.03
2023-09-25T07:33:33.538Z,102241.41
2023-09-25T07:36:04.750Z,102242.94
2023-09-25T07:38:34.892Z,102239.91
2023-09-25T07:41:03.429Z,102241.44
2023-09-25T07:43:46.430Z,102237.72
2023-09-25T07:46:19.896Z,102237.03
2023-09-25T07:48:49.705Z,102246.53
2023-09-25T07:51:20.001Z,102239.75
2023-09-25T07:53:48.172Z,102239.31
2023-09-25T07:56:17.046Z,102238.56
2023-09-25T07:58:45.443Z,102235.66
2023-09-25T08:01:15.244Z,102232.94
2023-09-25T08:03:44.672Z,102231.22
2023-09-25T08:06:16.505Z,102221.75
2023-09-25T08:08:44.579Z,102228.75
2023-09-25T08:11:14.848Z,102239.47
2023-09-25T08:13:42.860Z,102242.72
2023-09-25T08:16:11.147Z,102239.09
2023-09-25T08:18:39.324Z,102239.22
2023-09-25T08:21:07.335Z,102232.63
2023-09-25T08:23:36.664Z,102237.59
2023-09-25T08:26:06.601Z,102240.13
2023-09-25T08:28:35.072Z,102242.56
2023-09-25T08:31:03.154Z,102234.63
2023-09-25T08:33:31.213Z,102235.66
2023-09-25T08:35:59.329Z,102235.63
2023-09-25T08:38:27.314Z,102243.31
2023-09-25T08:40:56.764Z,102239.56
2023-09-25T08:43:27.615Z,102242.09
2023-09-25T08:45:58.980Z,102236.59
2023-09-25T08:48:27.838Z,102240.47
2023-09-25T08:50:55.966Z,102235.31
2023-09-25T08:53:24.277Z,102239.28
2023-09-25T08:55:53.573Z,102241.22
2023-09-25T08:58:24.003Z,102238.94
2023-09-25T09:01:34.135Z,102236.28
2023-09-25T09:04:04.961Z,102233.56
2023-09-25T09:06:33.181Z,102229.31
2023-09-25T09:09:01.425Z,102229.47
2023-09-25T09:11:30.694Z,102227.41
2023-09-25T09:14:03.566Z,102229.22
2023-09-25T09:16:31.540Z,102226.06
2023-09-25T09:19:08.163Z,102229.31
2023-09-25T09:21:36.606Z,102232.06
2023-09-25T09:24:09.257Z,102232.56
2023-09-25T09:26:38.562Z,102225.63
2023-09-25T09:29:14.780Z,102228.53
2023-09-25T09:31:43.564Z,102224.22
2023-09-25T09:34:11.778Z,102223.09
2023-09-25T09:36:52.511Z,102221.47
2023-09-25T09:39:22.912Z,102219.03
2023-09-25T09:41:52.767Z,102214.72
2023-09-25T09:44:22.969Z,102206.13
2023-09-25T09:46:52.718Z,102205.88
2023-09-25T09:49:22.762Z,102205.06
2023-09-25T09:51:52.213Z,102205.50
2023-09-25T09:54:22.726Z,102203.25
2023-09-25T09:56:51.189Z,102196.38
2023-09-25T09:59:20.159Z,102195.84
2023-09-25T10:01:50.472Z,102184.25
2023-09-25T10:04:18.960Z,102195.47
2023-09-25T10:06:50.349Z,102191.81
2023-09-25T10:09:19.310Z,102190.53
2023-09-25T10:11:49.652Z,102196.50
2023-09-25T10:14:22.724Z,102183.19
2023-09-25T10:16:59.338Z,102177.72
2023-09-25T10:19:50.414Z,102177.91
2023-09-25T10:22:21.626Z,102185.38
2023-09-25T10:24:55.294Z,102176.56
2023-09-25T10:27:26.655Z,102181.81
2023-09-25T10:30:12.425Z,102174.25
2023-09-25T10:32:43.484Z,102168.47
2023-09-25T10:35:55.571Z,102172.56
2023-09-25T10:38:31.721Z,102165.81
2023-09-25T10:41:06.563Z,102170.31
2023-09-25T10:43:36.020Z,102167.78
2023-09-25T10:46:05.504Z,102160.19
2023-09-25T10:48:35.628Z,102166.53
2023-09-25T10:51:04.587Z,102159.63
2023-09-25T10:53:34.091Z,102159.06
2023-09-25T10:56:02.184Z,102157.22
2023-09-25T10:58:30.321Z,102153.16
2023-09-25T11:00:58.966Z,102143.72
2023-09-25T11:03:27.212Z,102148.28
2023-09-25T11:05:57.049Z,102152.06
2023-09-25T11:08:27.769Z,102140.75
2023-09-25T11:11:00.800Z,102137.75
2023-09-25T11:13:29.706Z,102142.59
2023-09-25T11:15:58.523Z,102138.53
2023-09-25T11:18:26.655Z,102130.31
2023-09-25T11:20:58.360Z,102133.28
2023-09-25T11:23:26.600Z,102128.19
2023-09-25T11:25:55.618Z,102126.38
2023-09-25T11:28:26.809Z,102122.81
2023-09-25T11:30:56.525Z,102125.16
2023-09-25T11:33:25.981Z,102116.31
2023-09-25T11:35:57.150Z,102121.91
2023-09-25T11:38:29.284Z,102115.16
2023-09-25T11:41:02.200Z,102113.44
2023-09-25T11:43:30.391Z,102113.59
2023-09-25T11:45:58.847Z,102109.78
2023-09-25T11:48:27.528Z,102110.72
2023-09-25T11:50:57.570Z,102096.16
2023-09-25T11:53:25.775Z,102104.81
2023-09-25T11:55:54.967Z,102097.66
2023-09-25T11:58:23.838Z,102092.25
2023-09-25T12:00:52.121Z,102095.53
2023-09-25T12:03:20.711Z,102084.72
2023-09-25T12:05:48.948Z,102080.16
2023-09-25T12:08:19.155Z,102097.31
2023-09-25T12:10:47.542Z,102091.50
2023-09-25T12:13:17.037Z,102082.59
2023-09-25T12:15:46.220Z,102082.72
2023-09-25T12:18:15.036Z,102085.63
2023-09-25T12:20:44.217Z,102095.28
2023-09-25T12:23:12.588Z,102081.56
2023-09-25T12:25:42.073Z,102086.97
2023-09-25T12:28:10.578Z,102083.25
2023-09-25T12:30:39.040Z,102083.66
2023-09-25T12:33:09.223Z,102086.94
2023-09-25T12:35:42.432Z,102087.16
2023-09-25T12:38:11.570Z,102077.22
2023-09-25T12:40:41.083Z,102077.03
2023-09-25T12:43:10.406Z,102077.66
2023-09-25T12:45:39.064Z,102073.50
2023-09-25T12:48:08.996Z,102071.28
2023-09-25T12:50:37.480Z,102073.78
2023-09-25T12:53:06.348Z,102071.56
2023-09-25T12:55:36.607Z,102066.69
2023-09-25T12:58:07.215Z,102061.09
2023-09-25T13:00:35.377Z,102058.69
2023-09-25T13:03:03.946Z,102064.28
2023-09-25T13:05:34.831Z,102061.31
2023-09-25T13:08:03.251Z,102057.13
2023-09-25T13:10:33.749Z,102050.00
2023-09-25T13:13:01.847Z,102047.31
2023-09-25T13:15:31.840Z,102048.28
2023-09-25T13:18:00.350Z,102045.13
2023-09-25T13:20:28.647Z,102041.75
2023-09-25T13:22:56.878Z,102049.78
2023-09-25T13:25:25.666Z,102040.75
2023-09-25T13:27:53.820Z,102038.59
2023-09-25T13:30:23.022Z,102033.47
2023-09-25T13:32:52.909Z,102031.78
2023-09-25T13:35:24.006Z,102027.47
2023-09-25T13:37:52.326Z,102014.09
2023-09-25T13:40:22.172Z,102017.91
2023-09-25T13:42:50.391Z,102011.91
2023-09-25T13:45:19.009Z,102013.78
2023-09-25T13:47:47.828Z,102012.09
2023-09-25T13:50:17.842Z,102008.38
2023-09-25T13:52:47.988Z,102008.69
2023-09-25T13:55:17.592Z,102010.03
2023-09-25T13:57:46.727Z,102002.34
2023-09-25T14:00:15.184Z,102001.84
2023-09-25T14:02:44.267Z,102000.94
2023-09-25T14:05:13.875Z,102000.66
2023-09-25T14:07:43.676Z,101997.97
2023-09-25T14:10:14.513Z,101986.97
2023-09-25T14:12:45.093Z,101998.19
2023-09-25T14:15:13.455Z,101995.44
2023-09-25T14:17:41.707Z,101983.19
2023-09-25T14:20:10.633Z,101988.19
2023-09-25T14:22:39.803Z,101991.03
2023-09-25T14:25:10.563Z,101982.28
2023-09-25T14:27:39.205Z,101988.19
2023-09-25T14:30:08.572Z,101985.84
2023-09-25T14:32:36.832Z,101986.25
2023-09-25T14:35:05.426Z,101977.50
2023-09-25T14:37:35.748Z,101981.88
2023-09-25T14:40:04.365Z,101976.81
2023-09-25T14:42:34.675Z,101974.31
2023-09-25T14:45:03.670Z,101972.81
2023-09-25T14:47:34.219Z,101974.13
2023-09-25T14:50:02.203Z,101968.13
2023-09-25T14:52:31.042Z,101962.66
2023-09-25T14:54:59.180Z,101957.75
2023-09-25T14:57:27.197Z,101951.59
2023-09-25T14:59:56.768Z,101940.72
2023-09-25T15:02:24.930Z,101950.50
2023-09-25T15:04:53.294Z,101947.28
2023-09-25T15:07:21.398Z,101955.16
2023-09-25T15:09:49.895Z,101962.22
2023-09-25T15:12:19.468Z,101959.81
2023-09-25T15:14:47.666Z,101961.06
2023-09-25T15:17:17.012Z,101947.78
2023-09-25T15:19:46.204Z,101944.81
2023-09-25T15:22:14.235Z,101944.53
2023-09-25T15:24:42.278Z,101947.94
2023-09-25T15:27:10.229Z,101936.19
2023-09-25T15:29:40.275Z,101943.53
2023-09-25T15:32:12.358Z,101942.88
2023-09-25T15:34:43.011Z,101945.09
2023-09-25T15:37:12.354Z,101944.19
2023-09-25T15:39:41.362Z,101946.41
2023-09-25T15:42:09.440Z,101941.78
2023-09-25T15:44:37.660Z,101925.41
2023-09-25T15:47:06.481Z,101929.13
2023-09-25T15:49:34.961Z,101929.06
2023-09-25T15:52:04.534Z,101933.72
2023-09-25T15:54:32.619Z,101934.50
2023-09-25T15:57:01.087Z,101935.88
2023-09-25T15:59:29.412Z,101937.00
2023-09-25T16:01:57.695Z,101936.34
2023-09-25T16:04:25.895Z,101933.59
2023-09-25T16:06:54.311Z,101934.06
2023-09-25T16:09:23.867Z,101936.88
2023-09-25T16:11:52.017Z,101940.78
2023-09-25T16:14:19.960Z,101942.59
2023-09-25T16:16:48.118Z,101929.75
2023-09-25T16:19:16.182Z,101928.50
2023-09-25T16:21:44.747Z,101932.47
2023-09-25T16:24:12.789Z,101925.06
2023-09-25T16:26:42.278Z,101938.47
2023-09-25T16:29:10.484Z,101932.75
2023-09-25T16:31:38.682Z,101932.38
2023-09-25T16:34:07.022Z,101926.59
2023-09-25T16:36:35.104Z,101927.63
2023-09-25T16:39:04.706Z,101930.56
2023-09-25T16:41:32.863Z,101926.91
2023-09-25T16:44:02.371Z,101925.09
2023-09-25T16:46:30.611Z,101934.28
2023-09-25T16:48:58.811Z,101937.69
2023-09-25T16:51:27.294Z,101940.81
2023-09-25T16:53:55.284Z,101936.69
2023-09-25T16:56:23.482Z,101943.16
2023-09-25T16:58:52.099Z,101951.56
2023-09-25T17:01:21.581Z,101943.56
2023-09-25T17:03:50.211Z,101953.66
2023-09-25T17:06:18.538Z,101947.22
2023-09-25T17:08:46.548Z,101949.31
2023-09-25T17:11:14.702Z,101952.50
2023-09-25T17:13:42.656Z,101957.50
2023-09-25T17:16:11.157Z,101961.16
2023-09-25T17:18:40.674Z,101965.09
2023-09-25T17:21:08.692Z,101968.97
2023-09-25T17:23:36.604Z,101965.16
2023-09-25T17:26:04.546Z,101961.34
2023-09-25T17:28:32.732Z,101956.59
2023-09-25T17:31:10.093Z,101954.47
2023-09-25T17:33:40.399Z,101961.69
2023-09-25T17:36:10.511Z,101962.25
2023-09-25T17:38:38.502Z,101964.63
2023-09-25T17:41:11.293Z,101965.53
2023-09-25T17:43:39.720Z,101967.72
2023-09-25T17:46:10.358Z,101967.38
2023-09-25T17:48:43.875Z,101968.97
2023-09-25T17:51:12.033Z,101963.94
2023-09-25T17:53:40.335Z,101968.81
2023-09-25T17:56:09.557Z,101967.56
2023-09-25T17:58:38.938Z,101971.25
2023-09-25T18:01:07.178Z,101972.81
2023-09-25T18:03:35.444Z,101972.31
2023-09-25T18:06:05.742Z,101966.06
2023-09-25T18:08:33.795Z,101964.91
2023-09-25T18:11:01.894Z,101970.59
2023-09-25T18:13:30.025Z,101976.78
2023-09-25T18:15:58.065Z,101978.88
2023-09-25T18:18:26.490Z,101985.69
2023-09-25T18:20:54.676Z,101978.19
2023-09-25T18:23:24.123Z,101983.53
2023-09-25T18:25:53.317Z,101983.25
2023-09-25T18:28:21.610Z,101981.00
2023-09-25T18:30:49.799Z,101986.91
2023-09-25T18:33:17.814Z,101985.47
2023-09-25T18:35:45.986Z,101985.28
2023-09-25T18:38:14.578Z,101985.88
2023-09-25T18:40:43.945Z,101981.16
2023-09-25T18:43:11.989Z,101980.66
2023-09-25T18:45:40.318Z,101978.50
2023-09-25T18:48:10.154Z,101979.69
2023-09-25T18:50:40.407Z,101968.97
2023-09-25T18:53:08.709Z,101964.44
2023-09-25T18:55:43.425Z,101960.19
2023-09-25T18:58:12.036Z,101966.47
2023-09-25T19:00:45.481Z,101962.72
2023-09-25T19:03:13.546Z,101966.81
2023-09-25T19:05:41.890Z,101968.88
2023-09-25T19:08:09.899Z,101962.97
2023-09-25T19:10:38.107Z,101970.81
2023-09-25T19:13:07.596Z,101970.09
2023-09-25T19:15:35.658Z,101970.22
2023-09-25T19:18:03.711Z,101969.88
2023-09-25T19:20:31.761Z,101966.59
2023-09-25T19:22:59.874Z,101966.94
2023-09-25T19:25:27.885Z,101961.16
2023-09-25T19:27:55.877Z,101960.22
2023-09-25T19:30:25.388Z,101963.81
2023-09-25T19:32:53.504Z,101958.25
2023-09-25T19:35:21.558Z,101960.47
2023-09-25T19:37:49.830Z,101958.88
2023-09-25T19:40:18.842Z,101955.63
2023-09-25T19:42:47.123Z,101957.69
2023-09-25T19:45:16.194Z,101953.94
2023-09-25T19:47:45.615Z,101963.81
2023-09-25T19:50:13.714Z,101955.50
2023-09-25T19:52:41.924Z,101958.84
2023-09-25T19:55:10.843Z,101961.03
2023-09-25T19:57:41.125Z,101951.97
2023-09-25T20:00:12.620Z,101946.81
2023-09-25T20:02:41.595Z,101948.88
2023-09-25T20:05:12.293Z,101952.00
2023-09-25T20:07:41.474Z,101947.63
2023-09-25T20:10:14.624Z,101948.63
2023-09-25T20:12:43.732Z,101945.94
2023-09-25T20:15:12.679Z,101947.16
2023-09-25T20:17:41.134Z,101944.03
2023-09-25T20:20:12.033Z,101944.25
2023-09-25T20:22:40.699Z,101945.00
2023-09-25T20:25:10.113Z,101948.19
2023-09-25T20:27:38.357Z,101959.16
2023-09-25T20:30:08.015Z,101954.00
2023-09-25T20:32:36.118Z,101952.81
2023-09-25T20:35:04.346Z,101946.44
2023-09-25T20:37:33.934Z,101947.06
2023-09-25T20:40:02.347Z,101948.94
2023-09-25T20:42:30.541Z,101950.25
2023-09-25T20:44:58.717Z,101954.47
2023-09-25T20:47:26.797Z,101946.13
2023-09-25T20:49:54.950Z,101944.84
2023-09-25T20:52:22.889Z,101943.78
2023-09-25T20:54:52.218Z,101942.03
2023-09-25T20:57:21.111Z,101951.22
2023-09-25T20:59:49.615Z,101943.94
2023-09-25T21:02:17.650Z,101947.69
2023-09-25T21:04:45.833Z,101947.81
2023-09-25T21:07:13.895Z,101948.91
2023-09-25T21:09:41.948Z,101953.13
2023-09-25T21:12:11.596Z,101948.31
2023-09-25T21:14:39.660Z,101952.03
2023-09-25T21:17:07.764Z,101945.38
2023-09-25T21:19:35.772Z,101951.44
2023-09-25T21:22:03.773Z,101952.16
2023-09-25T21:24:31.735Z,101953.25
2023-09-25T21:26:59.761Z,101959.25
2023-09-25T21:29:29.222Z,101961.38
2023-09-25T21:31:57.249Z,101957.44
2023-09-25T21:34:25.287Z,101955.72
2023-09-25T21:36:53.364Z,101949.44
2023-09-25T21:39:21.413Z,101946.78
2023-09-25T21:41:49.459Z,101952.31
2023-09-25T21:44:17.438Z,101947.56
2023-09-25T21:46:46.820Z,101951.09
2023-09-25T21:49:14.938Z,101947.13
2023-09-25T21:51:43.056Z,101948.31
2023-09-25T21:54:12.297Z,101951.38
2023-09-25T21:56:40.673Z,101951.53
2023-09-25T21:59:08.715Z,101942.50
2023-09-25T22:01:36.856Z,101948.41
2023-09-25T22:04:07.091Z,101949.75
2023-09-25T22:06:35.208Z,101941.06
2023-09-25T22:09:04.514Z,101939.59
2023-09-25T22:11:32.469Z,101937.72
2023-09-25T22:14:00.544Z,101936.47
2023-09-25T22:16:28.674Z,101940.09
2023-09-25T22:18:56.710Z,101937.28
2023-09-25T22:21:26.102Z,101943.34
2023-09-25T22:23:54.050Z,101944.13
2023-09-25T22:26:22.381Z,101944.91
2023-09-25T22:28:50.295Z,101954.28
2023-09-25T22:31:20.310Z,101947.13
2023-09-25T22:33:49.797Z,101944.75
2023-09-25T22:36:18.530Z,101947.41
2023-09-25T22:38:47.991Z,101947.34
2023-09-25T22:41:16.159Z,101942.25
2023-09-25T22:43:44.729Z,101940.25
2023-09-25T22:46:13.036Z,101950.59
2023-09-25T22:48:41.240Z,101948.06
2023-09-25T22:51:09.283Z,101938.19
2023-09-25T22:53:37.262Z,101936.50
2023-09-25T22:56:08.172Z,101941.38
2023-09-25T22:58:39.003Z,101935.72
2023-09-25T23:01:07.179Z,101939.09
2023-09-25T23:03:35.282Z,101942.03
2023-09-25T23:06:03.572Z,101930.84
2023-09-25T23:08:32.367Z,101932.13
2023-09-25T23:11:00.311Z,101941.03
2023-09-25T23:13:30.054Z,101933.88
2023-09-25T23:15:58.321Z,101950.00
2023-09-25T23:18:26.617Z,101937.94
2023-09-25T23:20:55.102Z,101938.91
2023-09-25T23:23:23.244Z,101942.63
2023-09-25T23:25:52.222Z,101935.78
2023-09-25T23:28:20.233Z,101940.78
2023-09-25T23:30:50.500Z,101941.66
2023-09-25T23:33:18.532Z,101934.25
2023-09-25T23:35:46.572Z,101936.34
2023-09-25T23:38:15.187Z,101937.84
2023-09-25T23:40:43.405Z,101930.78
2023-09-25T23:43:11.665Z,101922.53
2023-09-25T23:45:39.657Z,101927.50
2023-09-25T23:48:09.534Z,101924.00
2023-09-25T23:50:37.473Z,101920.09
2023-09-25T23:53:05.867Z,101921.03
2023-09-25T23:55:33.965Z,101918.63
2023-09-25T23:58:01.967Z,101914.66
